Terminal Aerodrome Forecast
Issued by NWS Jackson, MS

Home | Current Version | Previous Version | Text Only | Print | Product List | Glossary On
Versions: 1 2 3 4 5 6 7 8 9 10 11 12 13 14 15 16 17
000
FTUS44 KJAN 272337
TAFHBG
TAF
KHBG 272337Z 2800/2824 11011KT P6SM -RA VCTS SCT035 BKN060CB OVC100
     FM280100 08008KT P6SM OVC050
     FM280400 09012KT P6SM OVC025
     FM281100 06007KT 5SM BR OVC015
     FM281300 06008KT 6SM BR OVC007
     FM281600 08011KT 6SM -RA BR VCTS BKN015CB OVC040=

USA.gov is the U.S. government's official web portal to all federal, state and local government web resources and services.